Terminal Aerodrome Forecast
Issued by NWS

Home | Current Version | Previous Version | Graphics & Text | Print | Product List | Glossary On
Versions: 1 2 3 4 5 6 7 8 9 10 11 12 13 14 15 16 17 18 19
664
FTUS43 KBIS 281720
TAFJMS
TAF
KJMS 281720Z 2818/2918 33012KT P6SM OVC023
     FM282100 32014KT P6SM SCT025 SCT150
     FM290300 32005KT P6SM FEW045 FEW250
     FM291200 00000KT P6SM BKN060
     FM291600 28006KT P6SM BKN100=

USA.gov is the U.S. government's official web portal to all federal, state and local government web resources and services.